• Join FlightAware (Why Join?)
  • Login
  • US Flag 
01:12PM EDT


 

Airport Tracker/Info


-or-


 

Live Flight TrackerFlight Track Log ✈ ASQ5941 ✈ 09-May-2013 ✈ KORD - KAVP

Flight Track Log - Related Links

Times and Time Zones

All times are in EDT time to prevent confusion due to time zone crossing. See the ASQ5941 flight status page for this flight to view local times or setup timezone preferences in your user account.

Time Position Orientation Groundspeed Altitude Reporting Facility
EDT Latitude Longitude Course Direction KTS MPH feet Rate Location/Type
03:08PM 42.0000 -87.9500 90° East 181 208 1,800  Level Chicago TRACON
03:09PM 42.0500 -87.9167 26° Northeast 222 255 4,000 2,040 Climbing Chicago TRACON
03:11PM 42.0412 -87.4634 83° East  Level FlightAware Approximate
03:11PM 42.1561 -87.8217 34° Northeast 280 322 7,300  Level Chicago Center
03:12PM 42.0583 -87.3133 78° East  Level FlightAware Approximate
03:12PM 42.1656 -87.7178 83° East 289 333 9,700  Level Chicago Center
03:13PM 42.0811 -87.1644 78° East  Level FlightAware Approximate
03:13PM 42.1472 -87.6131 103° East 290 334 11,800  Level Chicago Center
03:14PM 42.1000 -87.0189 90° East  Level FlightAware Approximate
03:14PM 42.1289 -87.4964 102° East 314 361 13,500  Level Chicago Center
03:15PM 42.1244 -87.3706 93° East 335 386 15,500 1,500 Climbing Chicago Center
03:16PM 42.1203 -87.2400 92° East 348 400 16,700 1,260 Climbing Chicago Center
03:17PM 42.1131 -87.0678 93° East 382 440 18,200 1,320 Climbing Chicago Center
03:18PM 42.1186 -86.9217 87° East 391 450 19,500 1,200 Climbing Chicago Center
03:19PM 42.1253 -86.7689 87° East 404 465 20,800 1,260 Climbing Chicago Center
03:20PM 42.1286 -86.6108 88° East 420 483 22,200 1,200 Climbing Chicago Center
03:21PM 42.1333 -86.4542 88° East 420 483 23,400 1,200 Climbing Chicago Center
03:22PM 42.1394 -86.2936 87° East 426 490 24,700 780 Climbing Chicago Center
03:23PM 42.1436 -86.0972 88° East 435 501 25,000 120 Climbing Chicago Center
03:24PM 42.1425 -85.9369 90° East 459 528 25,000  Level Chicago Center
03:25PM 42.1414 -85.7569 90° East 479 551 25,000  Level Chicago Center
03:26PM 42.1394 -85.5386 91° East 488 562 25,000  Level Chicago Center
03:27PM 42.1375 -85.3558 91° East 491 565 25,000  Level Chicago Center
03:27PM 42.1386 -85.2881 89° East 488 562 25,000  Level Cleveland Center
03:28PM 42.1356 -85.1058 91° East 488 562 25,000  Level Cleveland Center
03:29PM 42.1342 -84.9236 91° East 488 562 25,000  Level Cleveland Center
03:30PM 42.1308 -84.7386 91° East 488 562 25,000  Level Cleveland Center
03:31PM 42.1247 -84.5561 93° East 488 562 25,000  Level Cleveland Center
03:32PM 42.1350 -84.3747 86° East 483 556 25,000  Level Cleveland Center
03:33PM 42.1506 -84.2131 83° East 478 550 25,000  Level Cleveland Center
03:34PM 42.1686 -84.0378 82° East 478 550 25,000  Level Cleveland Center
03:35PM 42.1819 -83.8647 84° East 473 544 25,000  Level Cleveland Center
03:36PM 42.1450 -83.6975 107° East 455 524 25,000  Level Cleveland Center
03:37PM 42.1014 -83.5331 110° East 461 531 25,000  Level Cleveland Center
03:38PM 42.0892 -83.3533 95° East 467 537 25,000  Level Cleveland Center
03:39PM 42.0978 -83.1578 87° East 472 543 25,000  Level Cleveland Center
03:40PM 42.1058 -82.9789 86° East 472 543 25,000  Level Cleveland Center
03:41PM 42.1117 -82.8000 87° East 477 549 25,000  Level Cleveland Center
03:42PM 42.1169 -82.6211 88° East 477 549 25,000  Level Cleveland Center
03:43PM 42.1158 -82.4389 90° East 472 543 25,000  Level Cleveland Center
03:44PM 42.0642 -82.2781 113° Southeast 470 541 25,000  Level Cleveland Center
03:45PM 42.0017 -82.1228 118° Southeast 470 541 25,000  Level Cleveland Center
03:46PM 41.9392 -81.9650 118° Southeast 469 540 25,000  Level Cleveland Center
03:47PM 41.9158 -81.8108 101° East 469 540 25,000  Level Cleveland Center
03:48PM 41.9072 -81.6294 94° East 469 540 25,000  Level Cleveland Center
03:49PM 41.8942 -81.4533 96° East 469 540 25,000  Level Cleveland Center
03:50PM 41.8828 -81.2803 95° East 469 540 25,000  Level Cleveland Center
03:51PM 41.8692 -81.1044 96° East 469 540 25,000  Level Cleveland Center
03:52PM 41.8553 -80.9122 95° East 469 540 25,000  Level Cleveland Center
03:53PM 41.8411 -80.7364 96° East 469 540 25,000  Level Cleveland Center
03:54PM 41.8286 -80.5608 95° East 469 540 25,000  Level Cleveland Center
03:55PM 41.8222 -80.3853 93° East 469 540 25,000  Level Cleveland Center
03:56PM 41.8133 -80.2069 94° East 469 540 25,000  Level Cleveland Center
03:57PM 41.8064 -80.0344 93° East 469 540 25,000  Level Cleveland Center
03:58PM 41.7972 -79.8561 94° East 475 547 25,000  Level Cleveland Center
03:59PM 41.7875 -79.6836 94° East 475 547 25,000  Level Cleveland Center
04:00PM 41.7819 -79.5083 92° East 475 547 25,000  Level Cleveland Center
04:01PM 41.7719 -79.3331 94° East 469 540 25,000  Level Cleveland Center
04:02PM 41.7722 -79.1772 90° East 464 534 25,000  Level Cleveland Center
04:03PM 41.7761 -79.0044 88° East 457 526 25,000  Level Cleveland Center
04:04PM 41.7819 -78.8261 87° East 462 532 25,000  Level Cleveland Center
04:05PM 41.7853 -78.6561 88° East 462 532 25,000  Level Cleveland Center
04:06PM 41.7928 -78.4831 87° East 462 532 25,000 -60 Level Cleveland Center
04:07PM 41.7978 -78.3103 88° East 462 532 24,900 -540 Descending Cleveland Center
04:08PM 41.8047 -78.1375 87° East 462 532 24,000 -960 Descending Cleveland Center
04:09PM 41.8114 -77.9672 87° East 462 532 23,000 -540 Descending Cleveland Center
04:10PM 41.8158 -77.7997 88° East 462 532 23,000  Level Cleveland Center
04:11PM 41.7983 -77.6628 100° East 461 531 23,000  Level New York Center
04:12PM 41.7706 -77.4931 102° East 466 536 23,000  Level New York Center
04:13PM 41.7447 -77.3236 101° East 471 542 23,000  Level New York Center
04:14PM 41.7186 -77.1542 102° East 471 542 23,000 -1,140 Level New York Center
04:15PM 41.6917 -76.9906 102° East 466 536 20,800 -2,640 Descending New York Center
04:16PM 41.6664 -76.8356 102° East 449 517 17,900 -2,760 Descending New York Center
04:17PM 41.6461 -76.7031 102° East 416 479 15,300 -2,580 Descending New York Center
04:18PM 41.6386 -76.5608 94° East 392 451 12,900 -2,220 Descending New York Center
04:19PM 41.6453 -76.4200 86° East 357 411 10,900 -1,620 Descending New York Center
04:20PM 41.6611 -76.3075 79° East 327 376 9,700 -1,020 Descending New York Center
04:21PM 41.6983 -76.2214 60° Northeast 277 319 9,000 -360 Descending New York Center
04:22PM 41.6914 -76.1458 97° East 222 255 9,000  Level New York Center
04:23PM 41.6472 -76.0647 126° Southeast 232 267 9,000 -600 Level New York Center
04:24PM 41.6125 -75.9508 112° Southeast 290 334 7,900 -1,440 Descending New York Center
04:25PM 41.5833 -75.8544 112° Southeast 290 334 6,200 -1,500 Descending New York Center
04:26PM 41.5561 -75.7608 111° Southeast 274 315 5,000 -1,020 Descending New York Center
04:27PM 41.5325 -75.6814 112° Southeast 269 310 4,200 -600 Descending New York Center
04:28PM 41.4933 -75.6150 128° Southeast 234 269 3,900 -540 Descending New York Center
04:29PM 41.4428 -75.6306 193° South 190 219 3,200 -720 Descending New York Center